createdAt,value
2023-01-13T00:00:52.344Z,11.51
2023-01-13T00:01:52.322Z,11.46
2023-01-13T00:02:52.301Z,11.47
2023-01-13T00:03:52.311Z,11.40
2023-01-13T00:04:52.394Z,11.39
2023-01-13T00:05:52.260Z,11.43
2023-01-13T00:06:52.270Z,11.44
2023-01-13T00:07:52.244Z,11.44
2023-01-13T00:08:52.248Z,11.51
2023-01-13T00:09:52.229Z,11.42
2023-01-13T00:10:52.227Z,11.40
2023-01-13T00:11:52.234Z,11.40
2023-01-13T00:12:52.193Z,11.42
2023-01-13T00:13:52.196Z,11.43
2023-01-13T00:14:52.192Z,11.40
2023-01-13T00:15:52.175Z,11.27
2023-01-13T00:16:52.160Z,11.28
2023-01-13T00:17:52.136Z,11.28
2023-01-13T00:18:52.137Z,11.33
2023-01-13T00:19:52.124Z,11.33
2023-01-13T00:20:52.107Z,11.39
2023-01-13T00:21:52.091Z,11.33
2023-01-13T00:22:52.101Z,11.33
2023-01-13T00:23:52.072Z,11.39
2023-01-13T00:24:52.054Z,11.28
2023-01-13T00:25:52.058Z,11.21
2023-01-13T00:26:52.033Z,11.35
2023-01-13T00:27:52.065Z,11.25
2023-01-13T00:28:52.038Z,11.24
2023-01-13T00:29:52.007Z,11.25
2023-01-13T00:30:52.034Z,11.19
2023-01-13T00:31:52.008Z,11.28
2023-01-13T00:32:51.976Z,11.22
2023-01-13T00:33:51.978Z,11.24
2023-01-13T00:34:51.948Z,11.18
2023-01-13T00:35:51.954Z,11.24
2023-01-13T00:36:51.942Z,11.19
2023-01-13T00:37:51.927Z,11.21
2023-01-13T00:38:51.924Z,11.21
2023-01-13T00:39:51.907Z,11.17
2023-01-13T00:40:51.885Z,11.29
2023-01-13T00:41:51.871Z,11.18
2023-01-13T00:42:51.858Z,11.21
2023-01-13T00:43:51.889Z,11.15
2023-01-13T00:44:51.842Z,11.18
2023-01-13T00:45:51.831Z,11.21
2023-01-13T00:46:51.872Z,11.25
2023-01-13T00:47:51.809Z,11.15
2023-01-13T00:48:51.923Z,11.19
2023-01-13T00:49:51.799Z,11.15
2023-01-13T00:50:51.775Z,11.19
2023-01-13T00:51:51.783Z,11.18
2023-01-13T00:52:51.756Z,11.21
2023-01-13T00:53:51.908Z,11.18
2023-01-13T00:54:51.762Z,11.19
2023-01-13T00:55:51.723Z,11.21
2023-01-13T00:56:51.712Z,11.22
2023-01-13T00:57:51.732Z,11.21
2023-01-13T00:58:51.696Z,11.14
2023-01-13T00:59:51.701Z,11.21
2023-01-13T01:00:51.893Z,11.14
2023-01-13T01:01:51.855Z,11.22
2023-01-13T01:02:51.663Z,11.17
2023-01-13T01:03:51.655Z,11.19
2023-01-13T01:04:51.626Z,11.28
2023-01-13T01:05:51.611Z,11.21
2023-01-13T01:06:51.626Z,11.24
2023-01-13T01:07:51.589Z,11.22
2023-01-13T01:08:51.582Z,11.18
2023-01-13T01:09:51.594Z,11.19
2023-01-13T01:10:51.569Z,11.25
2023-01-13T01:11:51.546Z,11.22
2023-01-13T01:12:51.559Z,11.17
2023-01-13T01:13:51.522Z,11.15
2023-01-13T01:14:51.519Z,11.15
2023-01-13T01:15:51.560Z,11.18
2023-01-13T01:16:51.511Z,11.19
2023-01-13T01:17:51.481Z,11.18
2023-01-13T01:18:51.487Z,11.21
2023-01-13T01:19:51.464Z,11.22
2023-01-13T01:20:51.450Z,11.21
2023-01-13T01:21:51.439Z,11.22
2023-01-13T01:22:51.428Z,11.25
2023-01-13T01:23:51.436Z,11.18
2023-01-13T01:24:51.435Z,11.27
2023-01-13T01:25:51.402Z,11.14
2023-01-13T01:26:51.385Z,11.07
2023-01-13T01:27:51.371Z,11.07
2023-01-13T01:28:51.385Z,11.11
2023-01-13T01:29:51.354Z,11.22
2023-01-13T01:30:51.343Z,11.09
2023-01-13T01:31:51.374Z,11.09
2023-01-13T01:32:51.320Z,11.17
2023-01-13T01:33:51.315Z,11.15
2023-01-13T01:34:51.302Z,11.11
2023-01-13T01:35:51.291Z,11.17
2023-01-13T01:36:51.296Z,11.18
2023-01-13T01:37:51.270Z,11.15
2023-01-13T01:38:51.295Z,11.19
2023-01-13T01:39:51.254Z,11.15
2023-01-13T01:40:51.235Z,11.07
2023-01-13T01:41:51.232Z,11.10
2023-01-13T01:42:51.229Z,11.09
2023-01-13T01:43:51.204Z,11.03
2023-01-13T01:44:51.191Z,10.99
2023-01-13T01:45:51.198Z,10.91
2023-01-13T01:46:51.247Z,10.86
2023-01-13T01:47:51.180Z,10.78
2023-01-13T01:48:51.152Z,10.73
2023-01-13T01:49:51.149Z,10.70
2023-01-13T01:50:51.130Z,10.66
2023-01-13T01:51:51.139Z,10.56
2023-01-13T01:52:51.104Z,10.52
2023-01-13T01:53:51.096Z,10.41
2023-01-13T01:54:51.088Z,10.40
2023-01-13T01:55:51.087Z,10.41
2023-01-13T01:56:51.079Z,10.33
2023-01-13T01:57:51.055Z,10.29
2023-01-13T01:58:51.075Z,10.20
2023-01-13T01:59:51.055Z,10.30
2023-01-13T02:00:51.085Z,10.12
2023-01-13T02:01:51.157Z,10.12
2023-01-13T02:02:50.994Z,10.09
2023-01-13T02:03:51.053Z,10.05
2023-01-13T02:04:51.034Z,10.08
2023-01-13T02:05:50.964Z,9.97
2023-01-13T02:06:50.952Z,9.91
2023-01-13T02:07:50.973Z,9.91
2023-01-13T02:08:50.933Z,9.89
2023-01-13T02:09:50.936Z,9.87
2023-01-13T02:10:50.917Z,9.86
2023-01-13T02:11:50.901Z,9.89
2023-01-13T02:12:50.932Z,9.84
2023-01-13T02:13:50.874Z,9.79
2023-01-13T02:14:50.886Z,9.79
2023-01-13T02:15:50.850Z,9.79
2023-01-13T02:16:50.861Z,9.83
2023-01-13T02:17:50.834Z,9.90
2023-01-13T02:18:50.824Z,9.83
2023-01-13T02:19:50.836Z,9.87
2023-01-13T02:20:50.827Z,9.84
2023-01-13T02:21:50.794Z,9.84
2023-01-13T02:22:50.789Z,9.75
2023-01-13T02:23:50.798Z,9.76
2023-01-13T02:24:50.761Z,9.81
2023-01-13T02:25:50.766Z,9.78
2023-01-13T02:26:50.739Z,9.83
2023-01-13T02:27:50.726Z,9.81
2023-01-13T02:28:50.742Z,9.87
2023-01-13T02:29:50.745Z,9.69
2023-01-13T02:30:50.698Z,9.78
2023-01-13T02:31:50.754Z,9.72
2023-01-13T02:32:50.672Z,9.74
2023-01-13T02:33:50.677Z,9.72
2023-01-13T02:34:50.651Z,9.57
2023-01-13T02:35:50.657Z,9.57
2023-01-13T02:36:50.632Z,9.48
2023-01-13T02:37:50.622Z,9.57
2023-01-13T02:38:50.611Z,9.53
2023-01-13T02:39:50.611Z,9.54
2023-01-13T02:40:50.589Z,9.48
2023-01-13T02:41:50.575Z,9.51
2023-01-13T02:42:50.566Z,9.43
2023-01-13T02:43:50.582Z,9.56
2023-01-13T02:44:50.537Z,9.48
2023-01-13T02:45:50.546Z,9.60
2023-01-13T02:46:50.520Z,9.50
2023-01-13T02:47:50.525Z,9.50
2023-01-13T02:48:50.507Z,9.48
2023-01-13T02:49:50.509Z,9.56
2023-01-13T02:50:50.483Z,9.43
2023-01-13T02:51:50.512Z,9.54
2023-01-13T02:52:50.457Z,9.51
2023-01-13T02:53:50.446Z,9.47
2023-01-13T02:54:50.454Z,9.47
2023-01-13T02:55:50.436Z,9.40
2023-01-13T02:56:50.424Z,9.42
2023-01-13T02:57:50.403Z,9.50
2023-01-13T02:58:50.396Z,9.47
2023-01-13T02:59:50.408Z,9.46
2023-01-13T03:00:50.416Z,9.53
2023-01-13T03:01:50.544Z,9.38
2023-01-13T03:02:50.452Z,9.46
2023-01-13T03:03:50.345Z,9.40
2023-01-13T03:04:50.328Z,9.39
2023-01-13T03:05:50.322Z,9.43
2023-01-13T03:06:50.326Z,9.39
2023-01-13T03:07:50.315Z,9.40
2023-01-13T03:08:50.284Z,9.48
2023-01-13T03:09:50.270Z,9.38
2023-01-13T03:10:50.274Z,9.46
2023-01-13T03:11:50.250Z,9.40
2023-01-13T03:12:50.269Z,9.40
2023-01-13T03:13:50.259Z,9.48
2023-01-13T03:14:50.225Z,9.48
2023-01-13T03:15:50.219Z,9.47
2023-01-13T03:16:50.272Z,9.51
2023-01-13T03:17:50.199Z,9.51
2023-01-13T03:18:50.193Z,9.51
2023-01-13T03:19:50.177Z,9.39
2023-01-13T03:20:50.156Z,9.46
2023-01-13T03:21:50.160Z,9.43
2023-01-13T03:22:50.137Z,9.29
2023-01-13T03:23:50.148Z,9.35
2023-01-13T03:24:50.121Z,9.39
2023-01-13T03:25:50.099Z,9.33
2023-01-13T03:26:50.103Z,9.39
2023-01-13T03:27:50.095Z,9.33
2023-01-13T03:28:50.072Z,9.38
2023-01-13T03:29:50.056Z,9.39
2023-01-13T03:30:50.136Z,9.38
2023-01-13T03:31:50.032Z,9.42
2023-01-13T03:32:50.021Z,9.31
2023-01-13T03:33:50.027Z,9.42
2023-01-13T03:34:50.018Z,9.38
2023-01-13T03:35:49.989Z,9.38
2023-01-13T03:36:49.985Z,9.35
2023-01-13T03:37:49.973Z,9.40
2023-01-13T03:38:49.979Z,9.42
2023-01-13T03:39:49.967Z,9.33
2023-01-13T03:40:49.950Z,9.42
2023-01-13T03:41:49.943Z,9.35
2023-01-13T03:42:49.922Z,9.38
2023-01-13T03:43:49.907Z,9.38
2023-01-13T03:44:49.902Z,9.39
2023-01-13T03:45:49.953Z,9.39
2023-01-13T03:46:49.883Z,9.38
2023-01-13T03:47:49.875Z,9.39
2023-01-13T03:48:49.857Z,9.36
2023-01-13T03:49:49.860Z,9.36
2023-01-13T03:50:49.832Z,9.36
2023-01-13T03:51:49.821Z,9.43
2023-01-13T03:52:49.855Z,9.36
2023-01-13T03:53:49.795Z,9.24
2023-01-13T03:54:49.786Z,9.31
2023-01-13T03:55:49.812Z,9.26
2023-01-13T03:56:49.769Z,9.29
2023-01-13T03:57:49.894Z,9.32
2023-01-13T03:58:49.760Z,9.39
2023-01-13T03:59:49.737Z,9.24
2023-01-13T04:00:49.740Z,9.33
2023-01-13T04:01:49.922Z,9.23
2023-01-13T04:02:49.698Z,9.32
2023-01-13T04:03:49.745Z,9.24
2023-01-13T04:04:49.700Z,9.23
2023-01-13T04:05:49.683Z,9.32
2023-01-13T04:06:49.653Z,9.33
2023-01-13T04:07:49.655Z,9.29
2023-01-13T04:08:49.656Z,9.23
2023-01-13T04:09:49.620Z,9.35
2023-01-13T04:10:49.616Z,9.31
2023-01-13T04:11:49.717Z,9.31
2023-01-13T04:12:49.632Z,9.32
2023-01-13T04:13:49.577Z,9.39
2023-01-13T04:14:49.579Z,9.36
2023-01-13T04:15:49.578Z,9.36
2023-01-13T04:16:49.554Z,9.36
2023-01-13T04:17:49.574Z,9.39
2023-01-13T04:18:49.524Z,9.36
2023-01-13T04:19:49.515Z,9.38
2023-01-13T04:20:49.520Z,9.39
2023-01-13T04:21:49.487Z,9.33
2023-01-13T04:22:49.481Z,9.39
2023-01-13T04:23:49.490Z,9.32
2023-01-13T04:24:49.467Z,9.36
2023-01-13T04:25:49.450Z,9.18
2023-01-13T04:26:49.440Z,9.33
2023-01-13T04:27:49.447Z,9.21
2023-01-13T04:28:49.421Z,9.21
2023-01-13T04:29:49.425Z,9.26
2023-01-13T04:30:49.454Z,9.28
2023-01-13T04:31:49.381Z,9.17
2023-01-13T04:32:49.373Z,9.33
2023-01-13T04:33:49.383Z,9.23
2023-01-13T04:34:49.361Z,9.28
2023-01-13T04:35:49.347Z,9.24
2023-01-13T04:36:49.339Z,9.23
2023-01-13T04:37:49.318Z,9.24
2023-01-13T04:38:49.329Z,9.10
2023-01-13T04:39:49.300Z,9.05
2023-01-13T04:40:49.308Z,9.04
2023-01-13T04:41:49.294Z,9.05
2023-01-13T04:42:49.281Z,9.10
2023-01-13T04:43:49.267Z,9.10
2023-01-13T04:44:49.248Z,9.11
2023-01-13T04:45:49.256Z,9.11
2023-01-13T04:46:49.232Z,9.08
2023-01-13T04:47:49.209Z,9.10
2023-01-13T04:48:49.211Z,9.10
2023-01-13T04:49:49.185Z,9.11
2023-01-13T04:50:49.195Z,9.15
2023-01-13T04:51:49.180Z,9.10
2023-01-13T04:52:49.167Z,9.05
2023-01-13T04:53:49.143Z,9.05
2023-01-13T04:54:49.148Z,8.99
2023-01-13T04:55:49.128Z,8.87
2023-01-13T04:56:49.128Z,8.95
2023-01-13T04:57:49.101Z,9.02
2023-01-13T04:58:49.115Z,8.99
2023-01-13T04:59:49.097Z,9.05
2023-01-13T05:00:49.072Z,8.95
2023-01-13T05:01:49.172Z,9.01
2023-01-13T05:02:49.055Z,9.01
2023-01-13T05:03:49.049Z,8.96
2023-01-13T05:04:49.128Z,8.96
2023-01-13T05:05:49.014Z,8.92
2023-01-13T05:06:49.012Z,8.94
2023-01-13T05:07:49.012Z,8.92
2023-01-13T05:08:48.985Z,8.96
2023-01-13T05:09:49.008Z,8.99
2023-01-13T05:10:48.980Z,8.89
2023-01-13T05:11:48.959Z,8.86
2023-01-13T05:12:48.946Z,8.91
2023-01-13T05:13:48.956Z,8.95
2023-01-13T05:14:48.949Z,8.86
2023-01-13T05:15:48.980Z,8.89
2023-01-13T05:16:48.904Z,8.81
2023-01-13T05:17:48.891Z,8.84
2023-01-13T05:18:48.902Z,8.81
2023-01-13T05:19:48.874Z,8.81
2023-01-13T05:20:48.865Z,8.83
2023-01-13T05:21:48.868Z,8.79
2023-01-13T05:22:48.841Z,8.83
2023-01-13T05:23:48.823Z,8.77
2023-01-13T05:24:48.822Z,8.74
2023-01-13T05:25:48.809Z,8.70
2023-01-13T05:26:48.814Z,8.66
2023-01-13T05:27:48.780Z,8.70
2023-01-13T05:28:48.772Z,8.65
2023-01-13T05:29:48.756Z,8.62
2023-01-13T05:30:48.776Z,8.63
2023-01-13T05:31:48.786Z,8.61
2023-01-13T05:32:48.729Z,8.59
2023-01-13T05:33:48.733Z,8.59
2023-01-13T05:34:48.711Z,8.58
2023-01-13T05:35:48.702Z,8.58
2023-01-13T05:36:48.710Z,8.55
2023-01-13T05:37:48.684Z,8.61
2023-01-13T05:38:48.670Z,8.59
2023-01-13T05:39:48.654Z,8.58
2023-01-13T05:40:48.646Z,8.55
2023-01-13T05:41:48.632Z,8.56
2023-01-13T05:42:48.636Z,8.50
2023-01-13T05:43:48.631Z,8.48
2023-01-13T05:44:48.599Z,8.44
2023-01-13T05:45:48.584Z,8.48
2023-01-13T05:46:48.652Z,8.44
2023-01-13T05:47:48.596Z,8.47
2023-01-13T05:48:48.579Z,8.41
2023-01-13T05:49:48.555Z,8.44
2023-01-13T05:50:48.556Z,8.43
2023-01-13T05:51:48.524Z,8.47
2023-01-13T05:52:48.515Z,8.47
2023-01-13T05:53:48.511Z,8.47
2023-01-13T05:54:48.499Z,8.43
2023-01-13T05:55:48.505Z,8.43
2023-01-13T05:56:48.484Z,8.37
2023-01-13T05:57:48.462Z,8.36
2023-01-13T05:58:48.450Z,8.25
2023-01-13T05:59:48.440Z,8.25
2023-01-13T06:00:48.456Z,8.30
2023-01-13T06:01:48.420Z,8.16
2023-01-13T06:02:48.448Z,8.25
2023-01-13T06:03:48.412Z,8.08
2023-01-13T06:04:48.389Z,8.18
2023-01-13T06:05:48.387Z,8.11
2023-01-13T06:06:48.368Z,8.11
2023-01-13T06:07:48.358Z,8.05
2023-01-13T06:08:48.351Z,8.07
2023-01-13T06:09:48.351Z,8.00
2023-01-13T06:10:48.324Z,8.02
2023-01-13T06:11:48.311Z,8.02
2023-01-13T06:12:48.317Z,8.00
2023-01-13T06:13:48.300Z,8.00
2023-01-13T06:14:48.295Z,8.05
2023-01-13T06:15:48.352Z,8.02
2023-01-13T06:16:48.258Z,8.01
2023-01-13T06:17:48.281Z,8.07
2023-01-13T06:18:48.241Z,7.98
2023-01-13T06:19:48.243Z,8.05
2023-01-13T06:20:48.215Z,8.05
2023-01-13T06:21:48.207Z,8.02
2023-01-13T06:22:48.196Z,8.00
2023-01-13T06:23:48.204Z,8.07
2023-01-13T06:24:48.176Z,8.00
2023-01-13T06:25:48.162Z,7.98
2023-01-13T06:26:48.152Z,8.10
2023-01-13T06:27:48.140Z,8.05
2023-01-13T06:28:48.148Z,8.18
2023-01-13T06:29:48.133Z,8.23
2023-01-13T06:30:48.135Z,8.08
2023-01-13T06:31:48.148Z,8.23
2023-01-13T06:32:48.115Z,8.30
2023-01-13T06:33:48.089Z,8.26
2023-01-13T06:34:48.070Z,8.33
2023-01-13T06:35:48.071Z,8.36
2023-01-13T06:36:48.104Z,8.38
2023-01-13T06:37:48.044Z,8.37
2023-01-13T06:38:48.020Z,8.41
2023-01-13T06:39:48.003Z,8.47
2023-01-13T06:40:48.001Z,8.38
2023-01-13T06:41:47.981Z,8.50
2023-01-13T06:42:47.998Z,8.43
2023-01-13T06:43:47.969Z,8.47
2023-01-13T06:44:47.953Z,8.48
2023-01-13T06:45:47.948Z,8.38
2023-01-13T06:46:48.021Z,8.33
2023-01-13T06:47:47.936Z,8.30
2023-01-13T06:48:47.925Z,8.29
2023-01-13T06:49:47.901Z,8.33
2023-01-13T06:50:47.914Z,8.33
2023-01-13T06:51:47.920Z,8.30
2023-01-13T06:52:47.885Z,8.33
2023-01-13T06:53:47.853Z,8.30
2023-01-13T06:54:47.848Z,8.33
2023-01-13T06:55:47.840Z,8.33
2023-01-13T06:56:47.836Z,8.36
2023-01-13T06:57:47.825Z,8.36
2023-01-13T06:58:47.803Z,8.37
2023-01-13T06:59:47.793Z,8.37
2023-01-13T07:00:47.815Z,8.37
2023-01-13T07:01:48.044Z,8.41
2023-01-13T07:02:47.888Z,8.40
2023-01-13T07:03:47.762Z,8.36
2023-01-13T07:04:47.731Z,8.40
2023-01-13T07:05:47.739Z,8.37
2023-01-13T07:06:47.733Z,8.50
2023-01-13T07:07:47.730Z,8.44
2023-01-13T07:08:47.697Z,8.47
2023-01-13T07:09:47.681Z,8.47
2023-01-13T07:10:47.676Z,8.56
2023-01-13T07:11:47.666Z,8.47
2023-01-13T07:12:47.664Z,8.48
2023-01-13T07:13:47.646Z,8.53
2023-01-13T07:14:47.636Z,8.50
2023-01-13T07:15:47.619Z,8.56
2023-01-13T07:16:47.705Z,8.62
2023-01-13T07:17:47.608Z,8.48
2023-01-13T07:18:47.588Z,8.55
2023-01-13T07:19:47.580Z,8.48
2023-01-13T07:20:47.688Z,8.50
2023-01-13T07:21:47.571Z,8.61
2023-01-13T07:22:47.548Z,8.56
2023-01-13T07:23:47.562Z,8.56
2023-01-13T07:24:47.559Z,8.63
2023-01-13T07:25:47.523Z,8.58
2023-01-13T07:26:47.502Z,8.55
2023-01-13T07:27:47.506Z,8.56
2023-01-13T07:28:47.498Z,8.61
2023-01-13T07:29:47.469Z,8.63
2023-01-13T07:30:47.455Z,8.58
2023-01-13T07:31:49.863Z,8.59
2023-01-13T07:32:47.442Z,8.61
2023-01-13T07:33:47.441Z,8.68
2023-01-13T07:34:47.411Z,8.74
2023-01-13T07:35:47.420Z,8.79
2023-01-13T07:36:47.400Z,8.71
2023-01-13T07:37:47.380Z,8.68
2023-01-13T07:38:47.372Z,8.76
2023-01-13T07:39:47.383Z,8.74
2023-01-13T07:40:47.348Z,8.83
2023-01-13T07:41:47.351Z,8.89
2023-01-13T07:42:47.322Z,8.83
2023-01-13T07:43:47.323Z,8.81
2023-01-13T07:44:47.315Z,8.76
2023-01-13T07:45:47.327Z,8.89
2023-01-13T07:46:47.295Z,8.92
2023-01-13T07:47:47.313Z,8.81
2023-01-13T07:48:47.261Z,8.84
2023-01-13T07:49:47.251Z,8.86
2023-01-13T07:50:47.244Z,8.84
2023-01-13T07:51:47.244Z,8.83
2023-01-13T07:52:47.230Z,8.81
2023-01-13T07:53:47.220Z,8.80
2023-01-13T07:54:47.196Z,8.89
2023-01-13T07:55:47.213Z,8.92
2023-01-13T07:56:47.202Z,8.98
2023-01-13T07:57:47.200Z,8.89
2023-01-13T07:58:47.157Z,8.91
2023-01-13T07:59:47.158Z,8.95
2023-01-13T08:00:47.172Z,8.89
2023-01-13T08:01:47.257Z,8.81
2023-01-13T08:02:47.166Z,8.84
2023-01-13T08:03:47.127Z,8.86
2023-01-13T08:04:47.119Z,8.76
2023-01-13T08:05:47.100Z,8.76
2023-01-13T08:06:47.070Z,8.74
2023-01-13T08:07:47.079Z,8.70
2023-01-13T08:08:47.052Z,8.53
2023-01-13T08:09:47.070Z,8.55
2023-01-13T08:10:47.029Z,8.53
2023-01-13T08:11:47.040Z,8.34
2023-01-13T08:12:50.838Z,8.25
2023-01-13T08:13:47.994Z,8.19
2023-01-13T08:14:46.994Z,8.11
2023-01-13T08:15:46.991Z,8.10
2023-01-13T08:16:46.990Z,8.08
2023-01-13T08:17:46.970Z,8.02
2023-01-13T08:18:46.939Z,8.02
2023-01-13T08:19:46.937Z,7.95
2023-01-13T08:20:46.918Z,7.92
2023-01-13T08:21:46.933Z,7.98
2023-01-13T08:22:46.911Z,7.97
2023-01-13T08:23:46.910Z,7.97
2023-01-13T08:24:46.895Z,7.90
2023-01-13T08:25:46.883Z,7.92
2023-01-13T08:26:46.856Z,7.89
2023-01-13T08:27:46.872Z,7.90
2023-01-13T08:28:46.834Z,7.87
2023-01-13T08:29:46.829Z,7.85
2023-01-13T08:30:46.893Z,7.89
2023-01-13T08:31:46.816Z,7.95
2023-01-13T08:32:46.790Z,7.92
2023-01-13T08:33:46.797Z,7.92
2023-01-13T08:34:46.769Z,7.87
2023-01-13T08:35:46.824Z,7.87
2023-01-13T08:36:46.745Z,7.80
2023-01-13T08:37:46.744Z,7.80
2023-01-13T08:38:46.737Z,7.82
2023-01-13T08:39:46.732Z,7.75
2023-01-13T08:40:46.705Z,7.74
2023-01-13T08:41:46.720Z,7.72
2023-01-13T08:42:48.617Z,7.71
2023-01-13T08:43:46.699Z,7.69
2023-01-13T08:44:46.667Z,7.71
2023-01-13T08:45:46.687Z,7.77
2023-01-13T08:46:46.661Z,7.83
2023-01-13T08:47:46.632Z,7.87
2023-01-13T08:48:46.619Z,7.86
2023-01-13T08:49:46.606Z,7.85
2023-01-13T08:50:46.617Z,7.89
2023-01-13T08:51:46.612Z,7.95
2023-01-13T08:52:46.578Z,7.98
2023-01-13T08:53:46.564Z,7.92
2023-01-13T08:54:46.559Z,7.98
2023-01-13T08:55:46.547Z,7.97
2023-01-13T08:56:46.561Z,8.04
2023-01-13T08:57:46.567Z,8.04
2023-01-13T08:58:46.533Z,8.04
2023-01-13T08:59:46.518Z,8.02
2023-01-13T09:00:46.489Z,8.00
2023-01-13T09:01:46.636Z,8.20
2023-01-13T09:02:46.476Z,8.22
2023-01-13T09:03:46.507Z,8.45
2023-01-13T09:04:46.525Z,8.55
2023-01-13T09:05:46.441Z,8.77
2023-01-13T09:06:46.435Z,8.80
2023-01-13T09:07:46.419Z,9.08
2023-01-13T09:08:46.409Z,9.11
2023-01-13T09:09:46.417Z,9.21
2023-01-13T09:10:46.384Z,9.29
2023-01-13T09:11:46.392Z,9.36
2023-01-13T09:12:46.360Z,9.51
2023-01-13T09:13:46.358Z,9.56
2023-01-13T09:14:46.369Z,9.58
2023-01-13T09:15:46.458Z,9.72
2023-01-13T09:16:46.317Z,9.89
2023-01-13T09:17:46.333Z,9.79
2023-01-13T09:18:46.296Z,9.97
2023-01-13T09:19:46.301Z,9.94
2023-01-13T09:20:46.273Z,10.05
2023-01-13T09:21:46.296Z,10.01
2023-01-13T09:22:46.252Z,10.11
2023-01-13T09:23:46.260Z,10.33
2023-01-13T09:24:46.251Z,10.42
2023-01-13T09:25:46.243Z,10.48
2023-01-13T09:26:46.235Z,10.56
2023-01-13T09:27:46.225Z,10.41
2023-01-13T09:28:46.187Z,10.52
2023-01-13T09:29:46.237Z,10.55
2023-01-13T09:30:46.282Z,10.47
2023-01-13T09:31:46.211Z,10.53
2023-01-13T09:32:46.172Z,10.34
2023-01-13T09:33:46.134Z,10.52
2023-01-13T09:34:46.121Z,10.59
2023-01-13T09:35:46.177Z,10.68
2023-01-13T09:36:46.109Z,10.63
2023-01-13T09:37:46.096Z,10.47
2023-01-13T09:38:46.104Z,10.41
2023-01-13T09:39:46.072Z,10.52
2023-01-13T09:40:46.059Z,10.55
2023-01-13T09:41:46.071Z,10.53
2023-01-13T09:42:46.068Z,10.61
2023-01-13T09:43:46.070Z,10.60
2023-01-13T09:44:46.016Z,10.47
2023-01-13T09:45:46.011Z,10.59
2023-01-13T09:46:46.009Z,10.55
2023-01-13T09:47:46.040Z,10.48
2023-01-13T09:48:45.990Z,10.63
2023-01-13T09:49:45.985Z,10.61
2023-01-13T09:50:45.954Z,10.60
2023-01-13T09:51:46.045Z,10.67
2023-01-13T09:52:45.928Z,10.74
2023-01-13T09:53:45.938Z,10.86
2023-01-13T09:54:45.928Z,10.94
2023-01-13T09:55:45.898Z,10.86
2023-01-13T09:56:45.907Z,10.97
2023-01-13T09:57:45.878Z,11.04
2023-01-13T09:58:45.865Z,11.25
2023-01-13T09:59:45.860Z,11.18
2023-01-13T10:00:45.862Z,11.22
2023-01-13T10:01:46.830Z,11.27
2023-01-13T10:02:45.840Z,11.35
2023-01-13T10:03:45.956Z,11.27
2023-01-13T10:04:45.951Z,11.32
2023-01-13T10:05:45.797Z,11.29
2023-01-13T10:06:45.797Z,11.29
2023-01-13T10:07:45.792Z,11.02
2023-01-13T10:08:45.755Z,10.99
2023-01-13T10:09:45.748Z,10.79
2023-01-13T10:10:45.758Z,10.86
2023-01-13T10:11:45.737Z,10.92
2023-01-13T10:12:45.713Z,11.04
2023-01-13T10:13:45.749Z,11.02
2023-01-13T10:14:45.692Z,10.97
2023-01-13T10:15:45.711Z,10.97
2023-01-13T10:16:45.682Z,11.11
2023-01-13T10:17:45.664Z,11.19
2023-01-13T10:18:45.677Z,11.17
2023-01-13T10:19:45.664Z,11.11
2023-01-13T10:20:45.631Z,11.06
2023-01-13T10:21:45.613Z,11.17
2023-01-13T10:22:45.642Z,11.11
2023-01-13T10:23:45.595Z,11.11
2023-01-13T10:24:45.617Z,11.25
2023-01-13T10:25:45.637Z,11.10
2023-01-13T10:26:45.560Z,11.09
2023-01-13T10:27:45.564Z,11.02
2023-01-13T10:28:45.555Z,11.07
2023-01-13T10:29:45.540Z,11.15
2023-01-13T10:30:45.539Z,11.27
2023-01-13T10:31:45.531Z,11.39
2023-01-13T10:32:45.494Z,11.46
2023-01-13T10:33:45.509Z,11.52
2023-01-13T10:34:45.481Z,11.76
2023-01-13T10:35:45.486Z,11.65
2023-01-13T10:36:45.482Z,11.65
2023-01-13T10:37:45.444Z,11.64
2023-01-13T10:38:45.454Z,11.70
2023-01-13T10:39:45.440Z,11.69
2023-01-13T10:40:45.415Z,11.62
2023-01-13T10:41:45.401Z,11.58
2023-01-13T10:42:45.395Z,11.54
2023-01-13T10:43:45.418Z,11.61
2023-01-13T10:44:45.374Z,11.62
2023-01-13T10:45:45.363Z,11.55
2023-01-13T10:46:45.384Z,11.46
2023-01-13T10:47:45.333Z,11.40
2023-01-13T10:48:45.338Z,11.32
2023-01-13T10:49:45.333Z,11.24
2023-01-13T10:50:45.314Z,11.17
2023-01-13T10:51:45.324Z,11.14
2023-01-13T10:52:45.281Z,11.21
2023-01-13T10:53:45.280Z,11.15
2023-01-13T10:54:45.292Z,11.11
2023-01-13T10:55:45.256Z,11.17
2023-01-13T10:56:45.280Z,11.09
2023-01-13T10:57:45.223Z,11.09
2023-01-13T10:58:45.228Z,11.03
2023-01-13T10:59:45.210Z,11.07
2023-01-13T11:00:45.216Z,10.96
2023-01-13T11:01:45.303Z,10.94
2023-01-13T11:02:45.204Z,10.92
2023-01-13T11:03:45.169Z,10.97
2023-01-13T11:04:45.210Z,11.02
2023-01-13T11:05:45.148Z,11.07
2023-01-13T11:06:45.153Z,11.15
2023-01-13T11:07:45.145Z,11.11
2023-01-13T11:08:45.190Z,11.10
2023-01-13T11:09:45.128Z,11.11
2023-01-13T11:10:45.111Z,11.10
2023-01-13T11:11:45.098Z,11.10
2023-01-13T11:12:45.075Z,10.97
2023-01-13T11:13:45.056Z,10.96
2023-01-13T11:14:45.044Z,10.86
2023-01-13T11:15:45.152Z,10.81
2023-01-13T11:16:53.100Z,10.74
2023-01-13T11:17:46.014Z,10.73
2023-01-13T11:18:45.030Z,10.67
2023-01-13T11:19:44.988Z,10.73
2023-01-13T11:20:45.013Z,10.74
2023-01-13T11:21:44.969Z,10.79
2023-01-13T11:22:44.954Z,10.84
2023-01-13T11:23:44.987Z,10.88
2023-01-13T11:24:44.965Z,10.92
2023-01-13T11:25:44.923Z,11.00
2023-01-13T11:26:44.930Z,10.89
2023-01-13T11:27:44.919Z,10.88
2023-01-13T11:28:44.898Z,10.89
2023-01-13T11:29:44.878Z,10.96
2023-01-13T11:30:44.884Z,10.81
2023-01-13T11:31:44.958Z,10.74
2023-01-13T11:32:44.855Z,10.81
2023-01-13T11:33:44.836Z,10.71
2023-01-13T11:34:44.832Z,10.76
2023-01-13T11:35:44.831Z,10.70
2023-01-13T11:36:44.826Z,10.67
2023-01-13T11:37:44.819Z,10.85
2023-01-13T11:38:44.790Z,10.81
2023-01-13T11:39:44.796Z,10.76
2023-01-13T11:40:44.781Z,10.84
2023-01-13T11:41:44.762Z,10.74
2023-01-13T11:42:44.765Z,10.79
2023-01-13T11:43:44.749Z,10.94
2023-01-13T11:44:44.723Z,10.86
2023-01-13T11:45:44.707Z,10.88
2023-01-13T11:46:44.827Z,10.91
2023-01-13T11:47:44.710Z,10.96
2023-01-13T11:48:44.686Z,11.09
2023-01-13T11:49:44.665Z,11.14
2023-01-13T11:50:44.677Z,11.00
2023-01-13T11:51:44.644Z,11.07
2023-01-13T11:52:44.640Z,11.17
2023-01-13T11:53:44.659Z,11.06
2023-01-13T11:54:44.634Z,11.17
2023-01-13T11:55:44.631Z,11.17
2023-01-13T11:56:44.599Z,11.18
2023-01-13T11:57:44.595Z,11.21
2023-01-13T11:58:50.615Z,11.22
2023-01-13T11:59:45.569Z,11.22
2023-01-13T12:00:44.550Z,11.24
2023-01-13T12:01:44.569Z,11.11
2023-01-13T12:02:44.543Z,11.11
2023-01-13T12:03:44.515Z,10.99
2023-01-13T12:04:44.516Z,10.86
2023-01-13T12:05:44.499Z,10.91
2023-01-13T12:06:44.481Z,10.92
2023-01-13T12:07:44.470Z,10.84
2023-01-13T12:08:44.462Z,10.89
2023-01-13T12:09:44.514Z,10.78
2023-01-13T12:10:44.438Z,10.74
2023-01-13T12:11:44.442Z,10.70
2023-01-13T12:12:44.417Z,10.44
2023-01-13T12:13:44.426Z,10.45
2023-01-13T12:14:44.412Z,10.12
2023-01-13T12:15:44.391Z,10.01
2023-01-13T12:16:44.432Z,9.93
2023-01-13T12:17:44.362Z,9.83
2023-01-13T12:18:44.386Z,9.83
2023-01-13T12:19:44.345Z,9.69
2023-01-13T12:20:44.329Z,9.57
2023-01-13T12:21:44.321Z,9.56
2023-01-13T12:22:44.312Z,9.58
2023-01-13T12:23:44.303Z,9.68
2023-01-13T12:24:44.315Z,9.68
2023-01-13T12:25:44.278Z,9.75
2023-01-13T12:26:44.276Z,9.79
2023-01-13T12:27:47.110Z,9.83
2023-01-13T12:28:44.253Z,9.78
2023-01-13T12:29:44.257Z,9.83
2023-01-13T12:30:44.246Z,9.86
2023-01-13T12:31:44.259Z,9.89
2023-01-13T12:32:44.201Z,9.90
2023-01-13T12:33:44.188Z,9.94
2023-01-13T12:34:44.203Z,9.91
2023-01-13T12:35:44.172Z,9.96
2023-01-13T12:36:44.172Z,9.91
2023-01-13T12:37:44.143Z,9.96
2023-01-13T12:38:44.152Z,10.01
2023-01-13T12:39:44.125Z,10.01
2023-01-13T12:40:44.134Z,10.04
2023-01-13T12:41:44.102Z,10.05
2023-01-13T12:42:44.114Z,10.05
2023-01-13T12:43:44.125Z,10.08
2023-01-13T12:44:44.083Z,10.04
2023-01-13T12:45:44.106Z,10.08
2023-01-13T12:46:44.053Z,10.15
2023-01-13T12:47:44.046Z,10.05
2023-01-13T12:48:44.064Z,10.14
2023-01-13T12:49:44.021Z,10.09
2023-01-13T12:50:44.026Z,10.08
2023-01-13T12:51:43.995Z,10.18
2023-01-13T12:52:43.985Z,10.20
2023-01-13T12:53:43.976Z,10.27
2023-01-13T12:54:44.000Z,10.23
2023-01-13T12:55:43.949Z,10.25
2023-01-13T12:56:43.946Z,10.12
2023-01-13T12:57:43.931Z,10.11
2023-01-13T12:58:43.945Z,10.12
2023-01-13T12:59:43.924Z,10.05
2023-01-13T13:00:44.058Z,10.01
2023-01-13T13:01:44.287Z,10.07
2023-01-13T13:02:43.910Z,10.07
2023-01-13T13:03:43.868Z,10.08
2023-01-13T13:04:43.872Z,10.09
2023-01-13T13:05:43.849Z,10.15
2023-01-13T13:06:43.877Z,10.12
2023-01-13T13:07:43.819Z,10.09